Time;durP1;ratioP1;P1;durP2;ratioP2;P2;SDS_P1;SDS_P2;PMS_P1;PMS_P2;Temp;Humidity;BMP_temperature;BMP_pressure;BME280_temperature;BME280_humidity;BME280_pressure;Samples;Min_cycle;Max_cycle;Signal;HPM_P1;HPM_P2
2024/02/12 00:00:18;;;;;;;6.47;3.47;;;;;;;29.81;60.76;101499.56;5036723;28;69562;-36
2024/02/12 00:02:57;;;;;;;4.40;4.00;;;;;;;29.82;60.28;101500.38;5029141;28;65804;-34
2024/02/12 00:05:27;;;;;;;4.28;3.13;;;;;;;29.80;60.22;101503.28;5039331;28;69879;-35
2024/02/12 00:07:58;;;;;;;4.35;4.05;;;;;;;29.80;60.76;101511.38;5039867;28;66234;-33
2024/02/12 00:10:29;;;;;;;3.30;3.03;;;;;;;29.77;60.28;101517.19;5036408;28;69562;-35
2024/02/12 00:13:02;;;;;;;3.00;2.80;;;;;;;29.77;60.63;101519.91;5037926;28;66439;-34
2024/02/12 00:15:32;;;;;;;2.70;2.60;;;;;;;29.77;60.28;101521.78;5039916;28;69429;-33
2024/02/12 00:18:03;;;;;;;4.05;3.53;;;;;;;29.78;60.41;101523.44;5037145;28;66231;-34
2024/02/12 00:20:33;;;;;;;3.67;3.38;;;;;;;29.76;60.48;101514.72;5021813;28;70071;-34
2024/02/12 00:23:04;;;;;;;3.83;3.53;;;;;;;29.74;60.44;101525.69;5038901;28;65465;-34
2024/02/12 00:25:34;;;;;;;3.47;3.10;;;;;;;29.75;60.80;101538.19;5038010;28;70013;-33
2024/02/12 00:28:07;;;;;;;4.43;3.72;;;;;;;29.73;60.29;101539.44;5039335;28;65745;-33
2024/02/12 00:30:39;;;;;;;4.00;3.80;;;;;;;29.74;60.57;101538.41;5037684;28;69334;-33
2024/02/12 00:33:09;;;;;;;3.95;3.65;;;;;;;29.73;60.27;101539.44;5037292;28;66943;-34
2024/02/12 00:35:41;;;;;;;3.47;3.28;;;;;;;29.72;60.66;101538.56;5038063;28;69880;-36
2024/02/12 00:38:11;;;;;;;6.43;3.85;;;;;;;29.72;60.26;101543.97;5034623;28;66159;-33
2024/02/12 00:40:42;;;;;;;4.15;3.15;;;;;;;29.71;60.22;101553.13;5039117;28;70249;-34
2024/02/12 00:43:12;;;;;;;4.47;3.85;;;;;;;29.71;60.28;101545.03;5027107;28;65496;-34
2024/02/12 00:45:43;;;;;;;3.72;3.42;;;;;;;29.70;60.79;101545.22;5037563;28;70484;-33
2024/02/12 00:48:13;;;;;;;3.50;3.20;;;;;;;29.68;60.56;101550.84;5038571;28;66382;-35
2024/02/12 00:50:44;;;;;;;4.13;3.83;;;;;;;29.70;60.85;101562.28;5038096;28;70269;-35
2024/02/12 00:53:15;;;;;;;4.82;3.83;;;;;;;29.68;60.72;101564.34;5036229;28;65922;-34
2024/02/12 00:55:46;;;;;;;4.20;3.90;;;;;;;29.64;60.70;101563.06;5042651;28;69889;-34
2024/02/12 00:58:18;;;;;;;4.23;3.20;;;;;;;29.68;60.70;101568.94;5038019;28;66307;-34
2024/02/12 01:00:49;;;;;;;3.65;3.38;;;;;;;29.67;60.55;101565.41;5040643;28;69859;-34
2024/02/12 01:03:36;;;;;;;4.75;4.28;;;;;;;29.68;60.86;101564.34;5040888;28;66112;-34
2024/02/12 01:06:06;;;;;;;4.25;3.95;;;;;;;29.70;60.64;101566.84;5039940;28;70184;-33
2024/02/12 01:08:39;;;;;;;4.13;3.83;;;;;;;29.68;61.16;101561.66;5040763;28;66396;-33
2024/02/12 01:11:11;;;;;;;4.65;4.32;;;;;;;29.70;60.46;101567.69;5039550;28;70001;-33
2024/02/12 01:13:41;;;;;;;4.65;4.25;;;;;;;29.69;60.61;101576.81;5039533;28;65995;-33
2024/02/12 01:16:12;;;;;;;5.00;4.60;;;;;;;29.67;60.73;101576.22;5042254;28;70348;-34
2024/02/12 01:18:42;;;;;;;5.00;4.70;;;;;;;29.68;61.12;101569.75;5042725;28;65953;-34
2024/02/12 01:21:13;;;;;;;5.35;4.95;;;;;;;29.70;60.54;101583.94;5038796;28;70153;-33
2024/02/12 01:23:44;;;;;;;6.28;5.88;;;;;;;29.70;60.99;101583.94;5042423;28;66494;-34
2024/02/12 01:26:15;;;;;;;7.85;7.35;;;;;;;29.71;60.88;101580.19;5042575;28;70219;-34
2024/02/12 01:28:46;;;;;;;8.27;7.85;;;;;;;29.72;60.67;101586.41;5031723;28;66220;-33
2024/02/12 01:31:19;;;;;;;8.63;7.88;;;;;;;29.72;61.00;101589.13;5040311;28;70441;-33
2024/02/12 01:33:50;;;;;;;9.07;8.48;;;;;;;29.53;60.59;101560.84;5041261;28;66537;-33
2024/02/12 01:36:21;;;;;;;9.57;8.98;;;;;;;29.72;60.71;101592.66;5039687;28;70507;-34
2024/02/12 01:38:51;;;;;;;10.23;9.48;;;;;;;29.71;60.35;101601.81;5041018;28;66337;-34
2024/02/12 01:41:22;;;;;;;10.65;9.98;;;;;;;29.76;60.41;101599.38;5040772;28;69820;-35
2024/02/12 01:43:53;;;;;;;10.45;9.80;;;;;;;29.75;60.38;101605.78;5042409;28;66765;-34
2024/02/12 01:46:23;;;;;;;13.32;12.35;;;;;;;29.75;60.39;101608.50;5037949;28;70017;-34
2024/02/12 01:48:54;;;;;;;14.23;13.32;;;;;;;29.78;60.78;101609.97;5036083;28;66340;-33
2024/02/12 01:51:26;;;;;;;14.27;13.35;;;;;;;29.76;60.42;101609.34;5037139;28;70529;-33
2024/02/12 01:53:59;;;;;;;14.93;13.95;;;;;;;29.76;60.47;101615.59;5038625;28;66744;-33
2024/02/12 01:56:31;;;;;;;17.02;15.70;;;;;;;29.65;60.51;101597.19;5036135;28;70256;-33
2024/02/12 01:59:03;;;;;;;16.23;15.23;;;;;;;29.81;60.89;101629.38;5037360;28;65730;-34
2024/02/12 02:01:36;;;;;;;22.00;20.15;;;;;;;29.82;60.67;101631.03;5039623;28;69186;-36
2024/02/12 02:04:07;;;;;;;21.40;19.90;;;;;;;29.83;60.33;101632.69;5039741;28;65731;-35
2024/02/12 02:06:39;;;;;;;25.27;23.10;;;;;;;29.84;60.59;101628.16;5041015;28;69061;-35
2024/02/12 02:09:11;;;;;;;24.95;22.88;;;;;;;29.84;60.34;101628.16;5042347;28;66339;-35
2024/02/12 02:11:42;;;;;;;;;;;;;;;29.78;60.67;101628.91;5039489;28;70265;-34
2024/02/12 02:14:13;;;;;;;33.08;29.95;;;;;;;29.89;60.05;101630.25;5043459;28;67065;-35
2024/02/12 02:17:02;;;;;;;29.23;26.35;;;;;;;29.89;60.15;101635.66;5039481;28;70134;-33
2024/02/12 02:19:33;;;;;;;36.22;32.42;;;;;;;29.89;60.18;101631.06;5040100;28;64794;-34
2024/02/12 02:22:05;;;;;;;36.45;32.95;;;;;;;29.91;59.84;101622.78;5037536;28;70377;-36
2024/02/12 02:24:38;;;;;;;33.70;30.45;;;;;;;29.90;60.32;101621.94;5038423;28;65482;-33
2024/02/12 02:27:10;;;;;;;32.72;29.50;;;;;;;29.93;60.21;101626.13;5041590;28;70027;-39
2024/02/12 02:29:41;;;;;;;29.83;27.38;;;;;;;29.92;60.02;101624.44;5039230;28;65255;-34
2024/02/12 02:32:11;;;;;;;31.00;28.02;;;;;;;29.96;60.19;101625.72;5037905;28;70107;-33
2024/02/12 02:34:43;;;;;;;28.20;25.90;;;;;;;29.96;60.32;101626.56;5037128;28;65115;-35
2024/02/12 02:37:15;;;;;;;30.52;27.30;;;;;;;29.99;60.24;101628.88;5038133;28;70317;-34
2024/02/12 02:39:46;;;;;;;30.42;27.85;;;;;;;30.00;60.10;101629.69;5040532;28;65753;-34
2024/02/12 02:42:16;;;;;;;29.33;26.92;;;;;;;30.01;60.26;101628.69;5039663;28;70472;-33
2024/02/12 02:44:48;;;;;;;30.33;27.63;;;;;;;30.02;59.51;101617.66;5038647;28;66767;-34
2024/02/12 02:47:18;;;;;;;30.35;27.88;;;;;;;30.04;59.94;101622.88;5039365;28;70539;-33
2024/02/12 02:49:49;;;;;;;32.90;30.10;;;;;;;30.08;59.71;101623.31;5040419;28;65584;-34
2024/02/12 02:52:20;;;;;;;33.08;30.00;;;;;;;29.98;59.75;101596.63;5040765;28;70575;-33
2024/02/12 02:54:50;;;;;;;35.72;32.42;;;;;;;30.09;60.02;101609.59;5039707;28;66077;-33
2024/02/12 02:57:21;;;;;;;41.53;34.20;;;;;;;30.12;59.54;101601.09;5039624;28;69502;-34
2024/02/12 02:59:52;;;;;;;37.72;34.17;;;;;;;30.15;59.24;101603.41;5039124;28;65757;-33
2024/02/12 03:02:22;;;;;;;43.15;38.72;;;;;;;30.16;59.68;101605.06;5038444;28;69355;-35
2024/02/12 03:04:55;;;;;;;40.75;36.97;;;;;;;30.19;59.58;101593.00;5038999;28;65232;-34
2024/02/12 03:07:26;;;;;;;42.25;38.22;;;;;;;30.19;59.65;101599.25;5032910;28;69578;-33
2024/02/12 03:09:56;;;;;;;40.85;36.97;;;;;;;30.21;59.44;101599.88;5040412;28;66467;-33
2024/02/12 03:12:30;;;;;;;40.50;36.38;;;;;;;30.24;59.17;101602.22;5029375;28;70215;-33
2024/02/12 03:15:01;;;;;;;38.92;35.22;;;;;;;30.23;59.32;101600.56;5041387;28;66009;-35
2024/02/12 03:17:32;;;;;;;38.47;34.67;;;;;;;30.27;59.56;101603.69;5041334;28;70188;-34
2024/02/12 03:20:03;;;;;;;33.30;30.55;;;;;;;30.32;59.56;101608.53;5040142;28;65610;-33
2024/02/12 03:22:34;;;;;;;31.95;29.33;;;;;;;30.28;59.10;101603.50;5042057;28;70464;-33
2024/02/12 03:25:09;;;;;;;30.60;28.10;;;;;;;30.33;59.27;101612.91;5041433;28;65790;-34
2024/02/12 03:27:43;;;;;;;28.92;26.13;;;;;;;30.37;58.86;101611.44;5039620;28;69911;-37
2024/02/12 03:30:14;;;;;;;26.52;24.33;;;;;;;30.38;58.83;101607.72;5028894;28;66471;-34
2024/02/12 03:32:45;;;;;;;27.15;24.73;;;;;;;30.41;59.28;101612.72;5038478;28;70419;-35
2024/02/12 03:35:15;;;;;;;27.08;24.77;;;;;;;30.44;58.93;101604.22;5039978;28;66683;-35
2024/02/12 03:37:52;;;;;;;26.13;24.00;;;;;;;30.41;59.02;101594.63;5034114;28;69471;-34
2024/02/12 03:40:27;;;;;;;25.25;23.25;;;;;;;30.47;59.09;101601.09;5037365;28;65656;-34
2024/02/12 03:42:58;;;;;;;26.63;24.20;;;;;;;30.45;58.96;101590.50;5037741;28;70538;-34
2024/02/12 03:45:29;;;;;;;24.38;22.27;;;;;;;30.51;58.58;101586.16;5034564;28;66748;-34
2024/02/12 03:59:50;;;;;;;23.35;21.45;;;;;;;30.32;58.47;101548.97;5037760;28;70230;-34
2024/02/12 04:02:12;;;;;;;22.48;20.77;;;;;;;30.63;58.63;101557.44;5039689;28;66298;-35
2024/02/12 04:04:43;;;;;;;22.43;20.70;;;;;;;30.66;58.28;101554.31;5040118;28;70423;-36
2024/02/12 04:07:15;;;;;;;28.45;26.00;;;;;;;30.69;58.53;101548.50;5036295;28;66247;-36
2024/02/12 04:09:47;;;;;;;31.00;27.95;;;;;;;30.72;58.25;101550.78;5039828;28;69570;-33
2024/02/12 04:12:21;;;;;;;32.10;29.05;;;;;;;30.75;57.87;101548.72;5038122;28;66487;-35
2024/02/12 04:14:52;;;;;;;31.02;28.40;;;;;;;30.76;57.73;101534.13;5036956;28;70381;-35
2024/02/12 04:17:24;;;;;;;35.80;32.60;;;;;;;30.80;58.28;101530.03;5038394;28;66443;-40
2024/02/12 04:19:59;;;;;;;36.42;32.92;;;;;;;30.82;58.28;101520.66;5037441;28;43898;-34
2024/02/12 04:22:33;;;;;;;36.50;33.08;;;;;;;30.87;57.79;101520.03;5039364;28;65900;-36
2024/02/12 04:25:05;;;;;;;35.40;31.60;;;;;;;30.87;57.76;101514.59;5036276;28;70288;-35
2024/02/12 04:27:35;;;;;;;34.33;30.95;;;;;;;30.90;57.52;101509.63;5037214;28;66127;-37
2024/02/12 04:30:10;;;;;;;36.97;33.30;;;;;;;30.94;57.82;101510.06;5037295;28;70458;-34
2024/02/12 04:32:41;;;;;;;35.20;31.70;;;;;;;30.94;57.70;101504.63;5037513;28;66192;-36
2024/02/12 04:35:16;;;;;;;35.20;31.77;;;;;;;30.94;57.48;101499.22;5037393;28;70508;-37
2024/02/12 04:37:49;;;;;;;44.10;39.42;;;;;;;31.03;57.78;101491.72;5039334;28;65930;-36
2024/02/12 04:40:19;;;;;;;40.53;36.30;;;;;;;31.04;57.40;101488.00;5035551;28;70002;-36
2024/02/12 04:42:57;;;;;;;46.25;41.38;;;;;;;31.07;57.18;101482.97;5039426;28;66281;-34
2024/02/12 04:45:30;;;;;;;47.78;42.28;;;;;;;31.09;57.16;101480.91;5039285;28;70148;-36
2024/02/12 04:48:13;;;;;;;47.35;42.25;;;;;;;31.07;56.70;101472.13;5037055;28;66348;-36
2024/02/12 04:50:45;;;;;;;54.47;45.27;;;;;;;31.13;56.82;101465.88;5037122;28;70025;-36
2024/02/12 04:53:18;;;;;;;51.63;44.55;;;;;;;31.17;57.01;101466.28;5035625;28;65747;-35
2024/02/12 04:55:49;;;;;;;49.78;42.80;;;;;;;31.22;57.08;101457.53;5036920;28;69135;-34
2024/02/12 04:58:24;;;;;;;47.97;42.85;;;;;;;31.23;56.99;101442.94;5036071;28;65740;-36
2024/02/12 05:00:55;;;;;;;42.88;38.30;;;;;;;31.24;56.82;101439.22;5035259;28;69539;-35
2024/02/12 05:03:26;;;;;;;41.10;36.67;;;;;;;31.26;57.01;101443.38;5036449;28;65813;-34
2024/02/12 05:05:57;;;;;;;39.40;35.40;;;;;;;31.30;56.60;101435.66;5018682;28;70732;-35
2024/02/12 05:08:29;;;;;;;38.60;33.45;;;;;;;31.31;56.86;101419.16;5005411;28;66326;-35
2024/02/12 05:11:00;;;;;;;41.17;32.67;;;;;;;31.35;56.67;101419.59;5037754;28;70098;-34
2024/02/12 05:13:31;;;;;;;34.90;31.50;;;;;;;31.37;56.62;101403.97;5036030;28;65616;-34
2024/02/12 05:16:07;;;;;;;33.13;29.67;;;;;;;31.40;56.60;101403.56;5038617;28;70114;-34
2024/02/12 05:24:21;;;;;;;32.45;29.23;;;;;;;31.48;56.26;101391.63;5036558;28;66169;-34
2024/02/12 05:26:53;;;;;;;30.98;28.20;;;;;;;31.50;56.34;101384.97;5035792;28;70426;-35
2024/02/12 05:29:25;;;;;;;32.00;28.83;;;;;;;31.32;56.50;101344.94;5027639;28;65837;-33
2024/02/12 05:31:55;;;;;;;;;;;;;;;31.51;56.03;101370.38;5034745;28;69635;-35
2024/02/12 05:34:26;;;;;;;31.92;28.85;;;;;;;31.60;56.13;101352.81;5035340;28;66358;-34
2024/02/12 05:36:57;;;;;;;31.98;29.13;;;;;;;31.60;56.15;101352.00;5031466;28;70028;-33
2024/02/12 05:39:33;;;;;;;29.48;26.92;;;;;;;31.60;56.07;101354.69;5033825;28;66532;-35
2024/02/12 05:42:04;;;;;;;33.20;30.23;;;;;;;31.64;55.97;101345.06;5031841;28;70170;-36
2024/02/12 05:44:36;;;;;;;35.08;31.80;;;;;;;31.70;55.79;101349.63;5037048;28;65889;-33
2024/02/12 05:47:07;;;;;;;34.95;31.85;;;;;;;31.73;56.08;101345.66;5038507;28;70024;-35
2024/02/12 05:49:37;;;;;;;37.72;33.90;;;;;;;31.76;55.92;101339.81;5038420;28;66029;-35
2024/02/12 05:52:08;;;;;;;36.72;33.38;;;;;;;31.78;55.96;101337.72;5035472;28;70612;-34
2024/02/12 05:54:41;;;;;;;31.08;28.35;;;;;;;31.65;56.05;101305.22;5038535;28;67108;-35
2024/02/12 05:57:13;;;;;;;30.70;27.65;;;;;;;31.84;55.94;101331.44;5038778;28;70502;-35
2024/02/12 05:59:45;;;;;;;29.37;26.87;;;;;;;31.84;55.75;101315.16;5036292;28;66728;-34
2024/02/12 06:02:18;;;;;;;;;;;;;;;31.80;55.33;101312.03;5037782;28;70427;-36
2024/02/12 06:04:48;;;;;;;;;;;;;;;31.86;55.47;101302.19;5037109;28;66911;-35
2024/02/12 06:07:19;;;;;;;24.65;22.50;;;;;;;31.95;55.38;101305.53;5038033;28;71493;-33
2024/02/12 06:09:50;;;;;;;24.98;22.88;;;;;;;31.91;55.43;101286.16;5037332;28;65856;-34
2024/02/12 06:12:21;;;;;;;;;;;;;;;31.86;55.20;101280.50;5036698;28;69089;-34
2024/02/12 06:14:54;;;;;;;21.27;19.35;;;;;;;32.01;55.40;101289.22;5037374;28;66837;-34
2024/02/12 06:17:25;;;;;;;21.30;19.70;;;;;;;32.04;55.25;101283.34;5037994;28;69367;-33
2024/02/12 06:19:56;;;;;;;19.45;18.05;;;;;;;32.05;55.24;101282.28;5034615;28;67150;-34
2024/02/12 06:22:27;;;;;;;18.42;17.20;;;;;;;32.05;55.18;101271.44;5018682;28;69691;-34
2024/02/12 06:24:58;;;;;;;17.97;16.77;;;;;;;32.11;55.12;101266.19;5037166;28;65838;-34
2024/02/12 06:27:32;;;;;;;17.33;16.10;;;;;;;32.12;55.20;101257.00;5032111;28;70380;-34
2024/02/12 06:30:04;;;;;;;15.75;14.75;;;;;;;32.15;55.14;101256.53;5037917;28;65701;-35
2024/02/12 06:32:36;;;;;;;16.02;14.88;;;;;;;32.20;55.12;101248.56;5038670;28;69820;-34
2024/02/12 06:35:10;;;;;;;14.55;13.77;;;;;;;32.21;54.96;101240.22;5023138;28;65724;-34
2024/02/12 06:37:48;;;;;;;;;;;;;;;32.21;54.86;101233.97;5040192;28;69863;-34
2024/02/12 06:40:22;;;;;;;12.82;12.13;;;;;;;32.30;54.82;101227.22;5036487;28;66021;-35
2024/02/12 06:42:53;;;;;;;12.38;11.68;;;;;;;32.30;54.71;101221.78;5040546;28;69889;-33
2024/02/12 06:45:25;;;;;;;12.87;12.17;;;;;;;32.32;54.88;101222.41;5041084;28;66647;-33
2024/02/12 06:47:55;;;;;;;13.38;12.32;;;;;;;32.34;54.75;101216.72;5039902;28;70218;-34
2024/02/12 06:50:26;;;;;;;12.85;12.13;;;;;;;32.38;54.89;101213.34;5040301;28;66831;-34
2024/02/12 06:53:09;;;;;;;12.02;11.38;;;;;;;32.41;54.46;101199.31;5037490;28;69053;-34
2024/02/12 06:55:40;;;;;;;12.32;11.68;;;;;;;32.44;54.75;101201.59;5038918;28;65210;-34
2024/02/12 06:58:10;;;;;;;11.88;11.07;;;;;;;32.47;54.63;101190.31;5040892;28;70279;-34
2024/02/12 07:00:42;;;;;;;11.38;10.77;;;;;;;32.51;54.65;101184.44;5038574;28;66306;-34
2024/02/12 07:03:14;;;;;;;10.98;10.27;;;;;;;32.53;54.45;101177.72;5040908;28;69954;-34
2024/02/12 07:05:46;;;;;;;10.52;10.02;;;;;;;32.57;54.61;101178.09;5039499;28;65627;-34
2024/02/12 07:08:18;;;;;;;;;;;;;;;32.55;54.31;101172.09;5039151;28;70622;-34
2024/02/12 07:10:51;;;;;;;10.02;9.43;;;;;;;32.66;54.51;101171.34;5040517;28;66079;-35
2024/02/12 07:13:23;;;;;;;9.23;8.55;;;;;;;32.69;54.34;101165.44;5036047;28;70557;-33
2024/02/12 07:15:56;;;;;;;8.75;8.18;;;;;;;32.71;54.51;101164.16;5039653;28;66072;-34
2024/02/12 07:18:28;;;;;;;8.10;7.70;;;;;;;32.75;54.03;101156.38;5040352;28;69729;-34
2024/02/12 07:21:02;;;;;;;8.00;7.50;;;;;;;32.61;54.49;101120.41;5038599;28;66510;-33
2024/02/12 07:23:36;;;;;;;8.00;7.50;;;;;;;32.83;54.15;101139.78;5030414;28;69436;-36
2024/02/12 07:26:08;;;;;;;8.30;7.60;;;;;;;32.87;54.19;101130.09;5039941;28;66883;-34
2024/02/12 07:28:39;;;;;;;7.65;7.15;;;;;;;32.93;54.20;101129.22;5037718;28;69411;-33
2024/02/12 07:31:09;;;;;;;7.32;6.93;;;;;;;32.94;54.10;101120.00;5039889;28;66499;-37
2024/02/12 07:33:42;;;;;;;6.85;6.55;;;;;;;33.03;54.07;101122.44;5039998;28;69545;-34
2024/02/12 07:36:13;;;;;;;6.55;6.25;;;;;;;33.09;53.63;101113.34;5039296;28;66046;-33
2024/02/12 07:38:45;;;;;;;7.03;6.73;;;;;;;33.13;54.04;101111.84;5028500;28;70183;-34
2024/02/12 07:41:16;;;;;;;6.53;6.13;;;;;;;33.19;53.81;101105.47;5038046;28;66076;-35
2024/02/12 07:43:50;;;;;;;6.47;6.18;;;;;;;33.20;53.68;101093.53;5039410;28;69773;-34
2024/02/12 07:46:21;;;;;;;6.55;6.15;;;;;;;33.31;53.77;101098.19;5038599;28;66257;-34
2024/02/12 07:48:54;;;;;;;5.97;5.63;;;;;;;33.34;53.51;101097.72;5038226;28;70269;-34
2024/02/12 07:51:26;;;;;;;5.82;5.45;;;;;;;33.41;53.53;101091.38;5039697;28;66256;-33
2024/02/12 07:53:59;;;;;;;6.35;5.80;;;;;;;33.45;53.58;101087.09;5039914;28;70315;-34
2024/02/12 07:56:30;;;;;;;5.50;5.20;;;;;;;33.51;53.51;101075.28;5038806;28;66429;-34
2024/02/12 07:59:01;;;;;;;5.70;5.40;;;;;;;33.57;53.49;101077.09;5039224;28;70069;-34
2024/02/12 08:01:33;;;;;;;5.03;4.80;;;;;;;33.59;53.46;101080.44;5036328;28;66329;-33
2024/02/12 08:04:03;;;;;;;5.80;5.22;;;;;;;33.67;53.13;101080.09;5035606;28;69661;-35
2024/02/12 08:06:40;;;;;;;5.68;5.20;;;;;;;33.75;52.82;101076.19;5038421;28;65983;-34
2024/02/12 08:09:17;;;;;;;7.25;6.72;;;;;;;33.83;52.34;101088.63;5034463;28;69172;-34
2024/02/12 08:11:50;;;;;;;11.05;8.02;;;;;;;33.92;52.09;101081.75;5033411;28;66889;-34
2024/02/12 08:14:23;;;;;;;11.30;7.80;;;;;;;33.99;51.35;101082.44;5035360;28;70078;-35
2024/02/12 08:16:54;;;;;;;9.55;7.63;;;;;;;34.00;50.89;101070.53;5038565;28;65941;-35
2024/02/12 08:19:27;;;;;;;8.77;8.07;;;;;;;34.12;51.60;101076.81;5041115;28;70503;-35
2024/02/12 08:22:01;;;;;;;6.90;6.28;;;;;;;34.19;51.67;101072.06;5034960;28;65305;-34
2024/02/12 08:24:31;;;;;;;8.88;6.07;;;;;;;34.27;51.59;101076.34;5032203;28;69988;-33
2024/02/12 08:27:07;;;;;;;6.20;5.70;;;;;;;34.32;51.90;101065.53;5034323;28;65117;-34
2024/02/12 08:29:37;;;;;;;8.02;5.68;;;;;;;34.37;51.92;101062.09;5034334;28;69829;-34
2024/02/12 08:32:09;;;;;;;6.13;5.63;;;;;;;34.42;51.95;101059.50;5025874;28;65526;-34
2024/02/12 08:34:42;;;;;;;5.15;4.85;;;;;;;34.49;51.49;101057.44;5033731;28;69369;-34
2024/02/12 08:37:15;;;;;;;5.35;5.05;;;;;;;34.54;51.55;101063.00;5034227;28;65999;-35
2024/02/12 08:39:45;;;;;;;5.22;4.82;;;;;;;34.62;51.58;101050.94;5035783;28;69571;-34
2024/02/12 08:42:18;;;;;;;5.20;4.80;;;;;;;34.67;51.67;101045.59;5035601;28;66501;-33
2024/02/12 08:44:51;;;;;;;6.63;4.93;;;;;;;34.75;51.98;101047.09;5035263;28;70449;-34
2024/02/12 08:47:21;;;;;;;6.07;5.47;;;;;;;34.82;51.54;101045.03;5033614;28;66222;-34
2024/02/12 08:49:53;;;;;;;5.82;4.97;;;;;;;34.85;51.24;101059.03;5033174;28;70947;-34
2024/02/12 08:52:24;;;;;;;4.65;4.35;;;;;;;34.94;51.85;101064.91;5035574;28;66551;-34
2024/02/12 08:54:55;;;;;;;4.93;4.63;;;;;;;34.98;51.06;101062.53;5035356;28;69822;-34
2024/02/12 08:57:28;;;;;;;5.50;5.10;;;;;;;35.05;51.01;101052.28;5031923;28;65376;-34
2024/02/12 09:00:04;;;;;;;5.43;5.13;;;;;;;35.13;51.35;101055.50;5035024;28;69506;-35
2024/02/12 09:02:54;;;;;;;5.22;4.82;;;;;;;35.17;51.26;101061.28;5037436;28;65977;-34
2024/02/12 09:05:24;;;;;;;5.38;5.00;;;;;;;35.27;50.90;101063.34;5005137;28;71151;-36
2024/02/12 09:07:56;;;;;;;6.55;5.30;;;;;;;35.31;50.92;101065.34;5046746;28;65534;-34
2024/02/12 09:10:27;;;;;;;5.68;5.28;;;;;;;35.38;51.67;101070.63;5037730;28;70235;-35
2024/02/12 09:13:00;;;;;;;5.38;4.95;;;;;;;35.48;51.17;101081.72;5038880;28;66278;-34
2024/02/12 09:15:30;;;;;;;5.50;5.00;;;;;;;35.44;51.72;101061.47;5037908;28;70545;-35
2024/02/12 09:18:02;;;;;;;6.20;5.60;;;;;;;35.61;52.10;101077.88;5042237;28;66062;-34
2024/02/12 09:20:33;;;;;;;6.20;5.18;;;;;;;35.68;52.20;101088.59;5040404;28;70113;-35
2024/02/12 09:23:06;;;;;;;5.80;5.35;;;;;;;35.73;51.83;101080.50;5042411;28;65343;-35
2024/02/12 09:25:43;;;;;;;5.97;5.57;;;;;;;35.83;52.07;101090.75;5042039;28;69631;-35
2024/02/12 09:28:17;;;;;;;6.88;5.28;;;;;;;35.85;51.51;101086.69;5043637;28;66300;-34
2024/02/12 09:30:48;;;;;;;10.40;4.88;;;;;;;35.88;51.44;101083.47;5041067;28;69323;-34
2024/02/12 09:33:19;;;;;;;6.55;4.38;;;;;;;35.87;51.41;101081.81;5040412;28;65152;-33
2024/02/12 09:35:50;;;;;;;4.60;4.30;;;;;;;35.93;51.28;101097.19;5041798;28;70581;-35
2024/02/12 09:38:23;;;;;;;5.30;4.97;;;;;;;36.00;51.95;101099.75;5041819;28;65398;-34
2024/02/12 09:40:57;;;;;;;6.13;5.72;;;;;;;35.98;51.82;101094.53;5040418;28;70304;-34
2024/02/12 09:43:33;;;;;;;5.43;5.13;;;;;;;35.91;50.97;101074.81;5040089;28;66978;-34
2024/02/12 09:46:06;;;;;;;5.38;4.97;;;;;;;36.08;51.09;101102.09;5041058;28;70284;-33
2024/02/12 09:48:40;;;;;;;4.47;4.18;;;;;;;36.10;51.84;101102.66;5042485;28;66570;-34
2024/02/12 09:51:13;;;;;;;;;;;;;;;36.06;50.35;101111.63;5038294;28;69690;-34
2024/02/12 09:53:51;;;;;;;5.88;4.63;;;;;;;36.15;51.34;101099.19;5039971;28;66043;-33
2024/02/12 09:56:26;;;;;;;5.25;4.95;;;;;;;36.01;51.33;101077.66;5040524;28;69620;-35
2024/02/12 09:58:57;;;;;;;5.88;5.32;;;;;;;36.22;51.14;101124.41;5042129;28;66487;-37
2024/02/12 10:01:31;;;;;;;4.90;4.50;;;;;;;36.21;51.47;101120.03;5039284;28;70183;-34
2024/02/12 10:04:23;;;;;;;5.43;4.93;;;;;;;36.24;51.06;101130.44;5038933;28;64618;-34
2024/02/12 10:07:16;;;;;;;5.55;5.25;;;;;;;36.23;51.24;101135.06;5039028;28;69311;-36
2024/02/12 10:10:12;;;;;;;6.40;4.53;;;;;;;36.28;51.79;101134.34;5033492;28;65796;-33
2024/02/12 10:13:07;;;;;;;4.95;4.55;;;;;;;36.26;50.65;101139.22;5030814;28;69893;-36
2024/02/12 10:15:59;;;;;;;6.25;5.00;;;;;;;36.29;51.42;101149.63;5040149;28;66203;-34
2024/02/12 10:18:50;;;;;;;7.82;5.40;;;;;;;36.28;51.55;101164.38;5039046;28;69571;-34
2024/02/12 10:21:41;;;;;;;4.95;4.55;;;;;;;36.31;51.67;101174.81;5041786;28;65947;-36
2024/02/12 10:24:34;;;;;;;5.20;4.70;;;;;;;36.27;51.24;101176.38;5039181;28;69680;-35
2024/02/12 10:27:25;;;;;;;5.70;4.60;;;;;;;36.24;51.26;101185.06;5035776;28;67687;-34
2024/02/12 10:30:18;;;;;;;5.20;4.70;;;;;;;36.24;51.62;101185.06;5030768;28;69072;-35
2024/02/12 10:33:13;;;;;;;4.88;4.38;;;;;;;36.26;51.85;101193.84;5036230;28;65882;-34
2024/02/12 10:36:05;;;;;;;6.93;4.80;;;;;;;36.12;51.60;101181.59;5039987;28;70336;-34
2024/02/12 10:39:02;;;;;;;;;;;;;;;36.22;51.49;101203.63;5041136;28;65299;-35
2024/02/12 10:41:56;;;;;;;5.05;4.70;;;;;;;36.08;51.62;101172.25;5041384;28;69744;-35
2024/02/12 10:44:50;;;;;;;12.02;7.70;;;;;;;36.22;52.56;101203.63;5034403;28;67479;-36
2024/02/12 10:47:41;;;;;;;11.00;6.70;;;;;;;36.06;52.01;101188.06;5034032;28;69923;-35
2024/02/12 10:50:34;;;;;;;7.18;6.45;;;;;;;36.12;52.72;101214.38;5029534;28;67581;-36
2024/02/12 10:53:32;;;;;;;13.88;7.68;;;;;;;35.98;52.16;101201.03;5035858;28;68746;-36
2024/02/12 10:56:23;;;;;;;7.85;6.78;;;;;;;36.10;52.77;101221.97;5020019;28;66409;-36
2024/02/12 10:58:54;;;;;;;10.90;7.65;;;;;;;36.08;52.45;101215.94;5036033;28;69579;-35
2024/02/12 11:01:31;;;;;;;12.82;8.25;;;;;;;36.02;52.73;101210.38;5034777;28;65620;-35
2024/02/12 11:04:05;;;;;;;9.52;7.13;;;;;;;36.03;52.82;101222.94;5038180;28;70033;-35
2024/02/12 11:06:42;;;;;;;11.93;8.40;;;;;;;35.92;52.53;101215.66;5036658;28;65846;-34
2024/02/12 11:09:15;;;;;;;11.05;8.57;;;;;;;35.97;52.73;101223.94;5037862;28;70633;-36
2024/02/12 11:11:47;;;;;;;15.80;7.57;;;;;;;35.94;52.65;101224.44;5038309;28;65578;-35
2024/02/12 11:14:18;;;;;;;9.50;7.35;;;;;;;35.88;53.20;101225.41;5037119;28;70023;-34
2024/02/12 11:16:52;;;;;;;8.60;7.70;;;;;;;35.74;52.74;101202.22;5039564;28;66103;-34
2024/02/12 11:19:23;;;;;;;12.57;8.57;;;;;;;35.84;53.34;101224.25;5039449;28;68433;-35
2024/02/12 11:21:57;;;;;;;;;;;;;;;35.77;53.26;101229.88;5037019;28;65209;-35
2024/02/12 11:24:39;;;;;;;10.50;8.13;;;;;;;35.63;53.40;101212.13;5039081;28;69530;-35
2024/02/12 11:27:10;;;;;;;14.55;9.60;;;;;;;35.74;53.43;101234.97;5035566;28;66732;-35
2024/02/12 11:29:43;;;;;;;15.77;9.90;;;;;;;35.70;53.40;101237.38;5038764;28;70391;-35
2024/02/12 11:32:21;;;;;;;16.50;9.27;;;;;;;35.61;52.96;101235.28;5022415;28;65849;-34
2024/02/12 11:34:54;;;;;;;13.90;9.93;;;;;;;35.62;53.43;101243.22;5037365;28;68781;-34
2024/02/12 11:37:25;;;;;;;11.98;9.23;;;;;;;35.60;53.41;101253.56;5033068;28;65516;-34
2024/02/12 11:40:00;;;;;;;12.73;9.73;;;;;;;35.51;53.42;101253.09;5037983;28;69830;-35
2024/02/12 11:42:34;;;;;;;11.15;10.25;;;;;;;35.55;53.16;101259.75;5035634;28;66731;-35
2024/02/12 11:45:07;;;;;;;14.90;10.35;;;;;;;35.53;53.08;101272.78;5038647;28;70006;-34
2024/02/12 11:47:41;;;;;;;13.15;9.85;;;;;;;35.48;53.09;101272.69;5036903;28;65892;-35
2024/02/12 11:50:26;;;;;;;11.77;9.50;;;;;;;35.46;53.63;101277.53;5040199;28;70032;-34
2024/02/12 11:52:59;;;;;;;13.57;9.90;;;;;;;35.43;53.28;101283.47;5035269;28;66238;-35
2024/02/12 11:55:31;;;;;;;10.82;9.70;;;;;;;35.40;53.50;101289.44;5038216;28;70116;-34
2024/02/12 11:58:02;;;;;;;14.30;9.88;;;;;;;35.30;53.73;101284.59;5039439;28;66325;-34
2024/02/12 12:00:34;;;;;;;10.70;9.05;;;;;;;35.28;54.05;101296.81;5035433;28;71423;-33
2024/02/12 12:03:07;;;;;;;;;;;;;;;35.21;54.18;101301.56;5037937;28;66307;-35
2024/02/12 12:05:41;;;;;;;9.63;8.57;;;;;;;34.99;53.66;101263.16;5025155;28;69145;-34